Time;durP1;ratioP1;P1;durP2;ratioP2;P2;SDS_P1;SDS_P2;PMS_P1;PMS_P2;Temp;Humidity;BMP_temperature;BMP_pressure;BME280_temperature;BME280_humidity;BME280_pressure;Samples;Min_cycle;Max_cycle;Signal;HPM_P1;HPM_P2
2021/12/30 00:02:13;;;;;;;2.08;0.70;;;13.10;99.90;;;;;;5112698;28;20193;-81
2021/12/30 00:04:39;;;;;;;0.93;0.75;;;13.20;99.90;;;;;;5110061;28;20194;-81
2021/12/30 00:07:08;;;;;;;0.70;0.70;;;13.20;99.90;;;;;;5097181;28;20227;-82
2021/12/30 00:09:36;;;;;;;1.00;0.90;;;13.20;99.90;;;;;;5112568;28;20246;-81
2021/12/30 00:12:04;;;;;;;0.88;0.82;;;13.30;99.90;;;;;;5109288;28;20206;-81
2021/12/30 00:14:32;;;;;;;1.27;0.80;;;13.30;99.90;;;;;;5106170;27;20292;-81
2021/12/30 00:17:00;;;;;;;1.05;0.93;;;13.30;99.90;;;;;;5094641;28;20207;-81
2021/12/30 00:19:27;;;;;;;1.42;0.90;;;13.30;99.90;;;;;;5099713;28;20286;-81
2021/12/30 00:21:55;;;;;;;1.33;0.80;;;13.40;99.90;;;;;;5097300;28;20217;-81
2021/12/30 00:24:21;;;;;;;3.15;1.27;;;13.40;99.90;;;;;;5103359;28;20667;-81
2021/12/30 00:26:48;;;;;;;1.20;1.00;;;13.50;99.90;;;;;;5097680;28;20226;-81
2021/12/30 00:29:15;;;;;;;1.67;0.98;;;13.50;99.90;;;;;;5094643;28;20216;-81
2021/12/30 00:31:42;;;;;;;0.90;0.70;;;13.50;99.90;;;;;;5095531;28;20240;-81
2021/12/30 00:34:11;;;;;;;2.15;1.08;;;13.50;99.90;;;;;;5102836;28;20242;-81
2021/12/30 00:36:38;;;;;;;1.45;0.90;;;13.50;99.90;;;;;;5095602;28;20234;-81
2021/12/30 00:39:05;;;;;;;1.88;1.00;;;13.60;99.90;;;;;;5102830;28;20281;-81
2021/12/30 00:41:32;;;;;;;1.98;1.00;;;13.60;99.90;;;;;;5109323;28;20198;-81
2021/12/30 00:44:00;;;;;;;1.80;1.10;;;13.60;99.90;;;;;;5113650;28;20191;-81
2021/12/30 00:46:28;;;;;;;2.10;1.13;;;13.60;99.90;;;;;;5112670;28;20637;-81
2021/12/30 00:48:54;;;;;;;1.13;1.02;;;13.50;99.90;;;;;;5113708;28;20309;-82
2021/12/30 00:51:23;;;;;;;1.77;0.80;;;13.50;99.90;;;;;;5103139;28;20188;-79
2021/12/30 00:53:50;;;;;;;2.00;1.40;;;13.40;99.90;;;;;;5101441;28;20611;-79
2021/12/30 00:56:17;;;;;;;1.75;1.42;;;13.40;99.90;;;;;;5100941;28;20218;-79
2021/12/30 00:58:45;;;;;;;2.50;1.20;;;13.40;99.90;;;;;;5097913;28;20579;-79
2021/12/30 01:01:12;;;;;;;1.13;0.90;;;13.30;99.90;;;;;;5113398;28;20244;-79
2021/12/30 01:03:39;;;;;;;2.17;1.00;;;13.30;99.90;;;;;;5098517;28;20195;-79
2021/12/30 01:06:06;;;;;;;1.30;1.00;;;13.30;99.90;;;;;;5102049;28;20212;-79
2021/12/30 01:08:35;;;;;;;2.20;1.10;;;13.20;99.90;;;;;;5094473;28;20278;-79
2021/12/30 01:11:06;;;;;;;2.42;1.65;;;13.20;99.90;;;;;;5106904;27;20488;-79
2021/12/30 01:13:38;;;;;;;1.20;0.95;;;13.20;99.90;;;;;;5103933;28;20200;-79
2021/12/30 01:16:14;;;;;;;1.60;0.95;;;13.20;99.90;;;;;;5101949;28;20230;-79
2021/12/30 01:18:54;;;;;;;1.63;0.90;;;13.20;99.90;;;;;;5093880;28;20223;-79
2021/12/30 01:21:25;;;;;;;1.70;1.20;;;13.20;99.90;;;;;;5101613;28;20200;-79
2021/12/30 01:23:57;;;;;;;3.65;0.90;;;13.10;99.90;;;;;;5102309;28;20195;-79
2021/12/30 01:26:24;;;;;;;2.45;0.90;;;13.20;99.90;;;;;;5094705;28;20242;-78
2021/12/30 01:28:51;;;;;;;3.97;1.10;;;13.20;99.90;;;;;;5093876;28;20265;-79
2021/12/30 01:31:19;;;;;;;1.30;0.93;;;13.20;99.90;;;;;;5098352;28;20191;-79
2021/12/30 01:33:47;;;;;;;1.23;0.95;;;13.20;99.90;;;;;;5100726;28;20273;-79
2021/12/30 01:36:14;;;;;;;1.50;1.00;;;13.20;99.90;;;;;;5119015;28;20216;-79
2021/12/30 01:38:42;;;;;;;1.00;0.90;;;13.20;99.90;;;;;;5111005;27;20680;-79
2021/12/30 01:41:11;;;;;;;2.15;1.15;;;13.20;99.90;;;;;;5111033;27;20670;-78
2021/12/30 01:43:38;;;;;;;1.00;0.80;;;13.20;99.90;;;;;;5112774;28;20735;-79
2021/12/30 01:46:06;;;;;;;1.60;0.90;;;13.20;99.90;;;;;;5104010;28;20721;-79
2021/12/30 01:48:33;;;;;;;1.55;1.10;;;13.20;99.90;;;;;;5110186;28;20673;-79
2021/12/30 01:51:00;;;;;;;1.77;1.13;;;13.20;99.90;;;;;;5111759;28;20218;-79
2021/12/30 01:53:27;;;;;;;1.73;1.05;;;13.20;99.90;;;;;;5105958;28;20279;-79
2021/12/30 01:55:54;;;;;;;1.67;1.20;;;13.20;99.90;;;;;;5107756;28;20211;-79
2021/12/30 01:58:23;;;;;;;3.50;1.52;;;13.20;99.90;;;;;;5099891;28;20227;-79
2021/12/30 02:00:51;;;;;;;1.77;1.10;;;13.20;99.90;;;;;;5109272;28;20593;-79
2021/12/30 02:03:19;;;;;;;3.22;1.15;;;13.20;99.90;;;;;;5111483;28;20195;-79
2021/12/30 02:05:47;;;;;;;2.63;1.75;;;13.20;99.90;;;;;;5092726;28;20219;-78
2021/12/30 02:08:17;;;;;;;3.83;1.20;;;13.20;99.90;;;;;;5092545;28;20245;-79
2021/12/30 02:10:46;;;;;;;1.52;1.15;;;13.20;99.90;;;;;;5097308;28;20302;-79
2021/12/30 02:13:15;;;;;;;1.58;1.15;;;13.10;99.90;;;;;;5093396;28;20191;-80
2021/12/30 02:15:44;;;;;;;1.95;0.85;;;13.10;99.90;;;;;;5108742;28;20218;-79
2021/12/30 02:18:11;;;;;;;2.15;1.10;;;13.10;99.90;;;;;;5092632;28;20197;-79
2021/12/30 02:20:49;;;;;;;1.80;1.02;;;13.10;99.90;;;;;;5094313;28;20195;-79
2021/12/30 02:23:18;;;;;;;1.20;1.10;;;13.10;99.90;;;;;;5099299;28;20180;-79
2021/12/30 02:25:46;;;;;;;2.88;1.45;;;13.10;99.90;;;;;;5094074;28;20246;-79
2021/12/30 02:28:14;;;;;;;3.00;1.00;;;13.10;99.90;;;;;;5092280;28;20194;-79
2021/12/30 02:30:43;;;;;;;1.77;1.05;;;13.10;99.90;;;;;;5097646;28;20225;-79
2021/12/30 02:33:11;;;;;;;2.20;1.17;;;13.20;99.90;;;;;;5105701;28;20199;-78
2021/12/30 02:35:39;;;;;;;1.55;0.80;;;13.20;99.90;;;;;;5093280;28;20649;-78
2021/12/30 02:38:07;;;;;;;3.70;1.47;;;13.20;99.90;;;;;;5093417;28;20291;-79
2021/12/30 02:40:37;;;;;;;1.60;0.87;;;13.20;99.90;;;;;;5103625;28;20928;-79
2021/12/30 02:43:05;;;;;;;1.67;1.10;;;13.20;99.90;;;;;;5096826;28;20994;-79
2021/12/30 02:45:32;;;;;;;1.65;1.00;;;13.30;99.90;;;;;;5092820;28;20469;-79
2021/12/30 02:47:59;;;;;;;1.70;0.88;;;13.30;99.90;;;;;;5100138;28;20199;-79
2021/12/30 02:50:26;;;;;;;1.77;1.00;;;13.30;99.90;;;;;;5103334;28;20214;-78
2021/12/30 02:52:54;;;;;;;3.38;1.45;;;13.20;99.90;;;;;;5107318;28;20492;-79
2021/12/30 02:55:21;;;;;;;1.20;0.93;;;13.20;99.90;;;;;;5121111;28;20279;-78
2021/12/30 02:57:48;;;;;;;2.45;0.88;;;13.30;99.90;;;;;;5122859;28;20686;-79
2021/12/30 03:00:16;;;;;;;2.45;1.10;;;13.30;99.90;;;;;;5106453;28;20255;-78
2021/12/30 03:02:43;;;;;;;1.58;0.80;;;13.30;99.90;;;;;;5129516;28;20183;-79
2021/12/30 03:05:14;;;;;;;1.70;0.90;;;13.30;99.90;;;;;;5131730;28;20181;-78
2021/12/30 03:07:41;;;;;;;2.15;1.25;;;13.30;99.90;;;;;;5128970;28;20179;-80
2021/12/30 03:10:14;;;;;;;1.52;1.10;;;13.40;99.90;;;;;;5103363;28;20287;-79
2021/12/30 03:12:42;;;;;;;3.05;1.10;;;13.40;99.90;;;;;;5107716;28;20271;-79
2021/12/30 03:15:12;;;;;;;1.25;0.85;;;13.40;99.90;;;;;;5113188;28;20227;-77
2021/12/30 03:17:39;;;;;;;2.25;0.90;;;13.50;99.90;;;;;;5133701;28;20180;-79
2021/12/30 03:20:09;;;;;;;1.25;0.82;;;13.50;99.90;;;;;;5123699;28;20238;-78
2021/12/30 03:22:36;;;;;;;1.35;0.63;;;13.50;99.90;;;;;;5125368;28;20194;-78
2021/12/30 03:25:04;;;;;;;0.80;0.70;;;13.50;99.90;;;;;;5113968;28;20562;-79
2021/12/30 03:27:33;;;;;;;2.17;0.75;;;13.50;99.90;;;;;;5112048;28;20655;-80
2021/12/30 03:30:00;;;;;;;1.10;0.88;;;13.60;99.90;;;;;;5109235;28;20221;-79
2021/12/30 03:32:27;;;;;;;1.35;0.95;;;13.60;99.90;;;;;;5108034;28;20282;-79
2021/12/30 03:34:54;;;;;;;1.95;0.90;;;13.60;99.90;;;;;;5098962;28;20211;-79
2021/12/30 03:37:21;;;;;;;1.27;0.77;;;13.50;99.90;;;;;;5108923;28;20206;-79
2021/12/30 03:39:55;;;;;;;1.10;0.80;;;13.60;99.90;;;;;;5096615;28;20205;-78
2021/12/30 03:42:22;;;;;;;1.10;0.75;;;13.60;99.90;;;;;;5109696;28;20880;-79
2021/12/30 03:44:52;;;;;;;1.10;0.83;;;13.60;99.90;;;;;;5113063;28;20248;-79
2021/12/30 03:47:19;;;;;;;1.45;0.70;;;13.60;99.90;;;;;;5096544;28;20469;-79
2021/12/30 03:49:47;;;;;;;1.33;0.73;;;13.60;99.90;;;;;;5095035;28;20715;-78
2021/12/30 03:52:20;;;;;;;0.90;0.68;;;13.70;99.90;;;;;;5096855;28;20659;-79
2021/12/30 03:54:47;;;;;;;0.83;0.80;;;13.70;99.90;;;;;;5095491;28;20196;-78
2021/12/30 03:57:15;;;;;;;1.10;0.70;;;13.70;99.90;;;;;;5101408;28;20493;-79
2021/12/30 03:59:43;;;;;;;0.95;0.80;;;13.70;99.90;;;;;;5113199;28;20452;-78
2021/12/30 04:02:11;;;;;;;1.88;0.70;;;13.80;99.90;;;;;;5113601;27;20650;-78
2021/12/30 04:04:38;;;;;;;0.90;0.60;;;13.80;99.90;;;;;;5110028;28;20282;-79
2021/12/30 04:07:05;;;;;;;0.90;0.60;;;13.80;99.90;;;;;;5102629;28;20301;-79
2021/12/30 04:09:32;;;;;;;2.50;0.60;;;13.80;99.90;;;;;;5097067;28;20461;-79
2021/12/30 04:11:59;;;;;;;0.77;0.70;;;13.80;99.90;;;;;;5108344;28;20454;-78
2021/12/30 04:14:27;;;;;;;1.47;0.80;;;13.80;99.90;;;;;;5114436;28;20554;-79
2021/12/30 04:16:55;;;;;;;1.03;0.93;;;13.80;99.90;;;;;;5112759;28;20525;-79
2021/12/30 04:19:23;;;;;;;2.97;0.80;;;13.90;99.90;;;;;;5094487;28;20515;-79
2021/12/30 04:21:53;;;;;;;1.47;0.90;;;13.90;99.90;;;;;;5099169;28;20473;-79
2021/12/30 04:24:21;;;;;;;1.53;0.70;;;13.90;99.90;;;;;;5101286;28;20469;-79
2021/12/30 04:26:48;;;;;;;1.27;0.80;;;13.80;99.90;;;;;;5109479;28;20530;-80
2021/12/30 04:29:14;;;;;;;1.03;0.60;;;13.70;99.90;;;;;;5095437;28;20446;-78
2021/12/30 04:31:41;;;;;;;1.42;0.95;;;13.60;99.90;;;;;;5096320;28;20538;-78
2021/12/30 04:34:08;;;;;;;1.08;0.70;;;13.50;99.90;;;;;;5107860;28;20230;-79
2021/12/30 04:36:37;;;;;;;1.42;0.75;;;13.40;99.90;;;;;;5095979;28;20238;-79
2021/12/30 04:39:05;;;;;;;0.98;0.70;;;13.30;99.90;;;;;;5097423;28;20196;-79
2021/12/30 04:41:32;;;;;;;0.93;0.77;;;13.20;99.90;;;;;;5100854;28;20672;-79
2021/12/30 04:43:59;;;;;;;2.60;0.90;;;13.10;99.90;;;;;;5110890;28;20195;-79
2021/12/30 04:46:26;;;;;;;1.90;1.00;;;13.00;99.90;;;;;;5106601;28;20207;-80
2021/12/30 04:48:53;;;;;;;1.20;1.00;;;13.00;99.90;;;;;;5097582;27;20281;-83
2021/12/30 04:51:20;;;;;;;1.83;1.02;;;12.90;99.90;;;;;;5093874;28;20227;-78
2021/12/30 04:53:49;;;;;;;0.85;0.77;;;12.80;99.90;;;;;;5113319;28;20198;-80
2021/12/30 04:56:15;;;;;;;2.65;1.10;;;12.80;99.90;;;;;;5099884;28;20294;-80
2021/12/30 04:58:43;;;;;;;1.35;0.80;;;12.70;99.90;;;;;;5094364;28;20282;-87
2021/12/30 05:01:10;;;;;;;2.22;1.10;;;12.70;99.90;;;;;;5113891;28;20215;-77
2021/12/30 05:03:38;;;;;;;1.23;1.13;;;12.70;99.90;;;;;;5112217;28;20725;-83
2021/12/30 05:06:05;;;;;;;1.35;0.90;;;12.70;99.90;;;;;;5104432;28;20215;-83
2021/12/30 05:08:32;;;;;;;1.38;1.27;;;12.70;99.90;;;;;;5114109;28;20194;-77
2021/12/30 05:11:01;;;;;;;1.30;0.80;;;12.70;99.90;;;;;;5111611;28;20222;-85
2021/12/30 05:13:28;;;;;;;2.67;0.98;;;12.70;99.90;;;;;;5100244;28;20203;-82
2021/12/30 05:15:56;;;;;;;1.25;0.70;;;12.70;99.90;;;;;;5097015;28;20211;-83
2021/12/30 05:18:30;;;;;;;1.08;0.60;;;12.80;99.90;;;;;;5107748;28;20195;-86
2021/12/30 05:20:58;;;;;;;1.05;0.70;;;12.80;99.90;;;;;;5100040;28;20200;-81
2021/12/30 05:23:26;;;;;;;0.95;0.70;;;12.80;99.90;;;;;;5104094;28;20199;-81
2021/12/30 05:25:53;;;;;;;1.02;0.70;;;12.80;99.90;;;;;;5097270;28;20674;-82
2021/12/30 05:28:21;;;;;;;2.05;0.73;;;12.90;99.90;;;;;;5102950;28;20191;-82
2021/12/30 05:30:48;;;;;;;1.60;0.70;;;12.80;99.90;;;;;;5113234;28;20219;-81
2021/12/30 05:33:16;;;;;;;0.90;0.60;;;12.80;99.90;;;;;;5112212;28;20217;-82
2021/12/30 05:35:43;;;;;;;1.17;0.60;;;12.80;99.90;;;;;;5112939;28;20267;-82
2021/12/30 05:38:10;;;;;;;1.27;0.60;;;12.80;99.90;;;;;;5111077;28;20287;-81
2021/12/30 05:40:37;;;;;;;1.08;0.80;;;12.80;99.90;;;;;;5100733;28;20233;-81
2021/12/30 05:43:04;;;;;;;0.70;0.60;;;12.70;99.90;;;;;;5093156;28;20258;-82
2021/12/30 05:45:33;;;;;;;0.60;0.60;;;12.70;99.90;;;;;;5097109;28;20265;-81
2021/12/30 05:48:00;;;;;;;1.77;0.70;;;12.70;99.90;;;;;;5100695;28;20219;-81
2021/12/30 05:50:31;;;;;;;1.55;0.60;;;12.70;99.90;;;;;;5111362;28;20215;-82
2021/12/30 05:52:58;;;;;;;1.23;0.70;;;12.70;99.90;;;;;;5107227;28;20627;-82
2021/12/30 05:55:25;;;;;;;0.80;0.70;;;12.70;99.90;;;;;;5102373;28;20204;-82
2021/12/30 05:57:54;;;;;;;1.20;0.60;;;12.70;99.90;;;;;;5116416;28;20280;-81
2021/12/30 06:00:24;;;;;;;0.88;0.60;;;12.70;99.90;;;;;;5094809;28;20419;-82
2021/12/30 06:02:53;;;;;;;0.60;0.60;;;12.70;99.90;;;;;;5101193;28;20265;-81
2021/12/30 06:05:20;;;;;;;1.63;0.60;;;12.70;99.90;;;;;;5098864;28;20303;-82
2021/12/30 06:07:48;;;;;;;0.60;0.50;;;12.60;99.90;;;;;;5101994;28;20203;-82
2021/12/30 06:10:15;;;;;;;0.95;0.60;;;12.60;99.90;;;;;;5111525;28;20192;-82
2021/12/30 06:12:43;;;;;;;0.70;0.70;;;12.50;99.90;;;;;;5095450;28;20249;-81
2021/12/30 06:15:12;;;;;;;0.73;0.60;;;12.50;99.90;;;;;;5108881;28;20218;-82
2021/12/30 06:17:39;;;;;;;0.65;0.60;;;12.50;99.90;;;;;;5102811;27;20219;-82
2021/12/30 06:20:10;;;;;;;0.80;0.50;;;12.50;99.90;;;;;;5089966;28;20199;-82
2021/12/30 06:22:37;;;;;;;1.02;0.60;;;12.50;99.90;;;;;;5107294;28;20282;-82
2021/12/30 06:25:05;;;;;;;1.35;0.80;;;12.50;99.90;;;;;;5103157;28;20555;-83
2021/12/30 06:27:32;;;;;;;0.70;0.70;;;12.40;99.90;;;;;;5106562;28;20195;-82
2021/12/30 06:29:59;;;;;;;1.15;0.80;;;12.40;99.90;;;;;;5106158;28;20226;-82
2021/12/30 06:32:26;;;;;;;0.70;0.70;;;12.40;99.90;;;;;;5104357;28;20333;-83
2021/12/30 06:34:54;;;;;;;1.10;0.70;;;12.40;99.90;;;;;;5102948;28;20265;-82
2021/12/30 06:37:23;;;;;;;0.60;0.60;;;12.40;99.90;;;;;;5105005;28;20227;-82
2021/12/30 06:39:50;;;;;;;0.60;0.60;;;12.40;99.90;;;;;;5093229;28;20202;-82
2021/12/30 06:42:17;;;;;;;0.70;0.60;;;12.40;99.90;;;;;;5098223;28;20664;-82
2021/12/30 06:44:44;;;;;;;0.60;0.50;;;12.40;99.90;;;;;;5102723;28;20219;-82
2021/12/30 06:47:11;;;;;;;1.05;0.80;;;12.40;99.90;;;;;;5104165;28;20724;-84
2021/12/30 06:49:38;;;;;;;0.60;0.50;;;12.40;99.90;;;;;;5099146;28;20221;-83
2021/12/30 06:52:07;;;;;;;0.80;0.57;;;12.50;99.90;;;;;;5101180;28;20255;-84
2021/12/30 06:54:36;;;;;;;1.20;0.65;;;12.40;99.90;;;;;;5104633;28;20198;-83
2021/12/30 06:57:06;;;;;;;0.95;0.77;;;12.40;99.90;;;;;;5100596;28;20696;-83
2021/12/30 06:59:35;;;;;;;0.70;0.60;;;12.40;99.90;;;;;;5099966;28;20195;-84
2021/12/30 07:02:02;;;;;;;1.10;0.70;;;12.50;99.90;;;;;;5101298;28;20240;-82
2021/12/30 07:04:29;;;;;;;1.58;0.60;;;12.50;99.90;;;;;;5106337;28;20191;-81
2021/12/30 07:06:57;;;;;;;0.77;0.60;;;12.40;99.90;;;;;;5099521;28;20295;-82
2021/12/30 07:09:24;;;;;;;1.85;0.98;;;12.50;99.90;;;;;;5099861;28;20732;-79
2021/12/30 07:11:54;;;;;;;1.70;0.73;;;12.50;99.90;;;;;;5095441;28;20219;-84
2021/12/30 07:14:23;;;;;;;0.85;0.65;;;12.50;99.90;;;;;;5106690;28;20263;-83
2021/12/30 07:16:50;;;;;;;1.10;0.70;;;12.50;99.90;;;;;;5104717;28;20713;-84
2021/12/30 07:19:17;;;;;;;0.70;0.65;;;12.60;99.90;;;;;;5108149;28;20187;-84
2021/12/30 07:21:45;;;;;;;2.05;0.50;;;12.60;99.90;;;;;;5105446;28;20230;-83
2021/12/30 07:24:12;;;;;;;1.00;0.57;;;12.60;99.90;;;;;;5112457;28;20226;-83
2021/12/30 07:26:39;;;;;;;1.23;0.75;;;12.50;99.90;;;;;;5108200;28;20225;-84
2021/12/30 07:29:08;;;;;;;4.40;1.23;;;12.60;99.90;;;;;;5095483;28;20650;-76
2021/12/30 07:31:35;;;;;;;5.22;2.53;;;12.60;99.90;;;;;;5105311;28;20677;-82
2021/12/30 07:34:03;;;;;;;0.70;0.60;;;12.60;99.90;;;;;;5109445;28;20199;-84
2021/12/30 07:36:30;;;;;;;2.03;0.60;;;12.60;99.90;;;;;;5111554;28;20629;-86
2021/12/30 07:38:57;;;;;;;0.75;0.60;;;12.60;99.90;;;;;;5104816;28;20202;-85
2021/12/30 07:41:24;;;;;;;1.25;0.80;;;12.60;99.90;;;;;;5106091;28;20191;-85
2021/12/30 07:43:52;;;;;;;1.75;1.02;;;12.70;99.90;;;;;;5107074;28;20313;-82
2021/12/30 07:46:20;;;;;;;0.90;0.90;;;12.60;99.90;;;;;;5108031;28;20210;-86
2021/12/30 07:48:47;;;;;;;1.75;0.90;;;12.60;99.90;;;;;;5102359;27;20203;-87
2021/12/30 07:51:15;;;;;;;1.05;0.90;;;12.60;99.90;;;;;;5102168;28;20752;-86
2021/12/30 07:53:42;;;;;;;1.20;1.10;;;12.70;99.90;;;;;;5098752;28;20209;-85
2021/12/30 07:56:09;;;;;;;0.70;0.70;;;12.70;99.90;;;;;;5105525;28;20241;-85
2021/12/30 07:58:37;;;;;;;0.82;0.70;;;12.70;99.90;;;;;;5103996;28;20225;-85
2021/12/30 08:01:04;;;;;;;0.88;0.60;;;12.60;99.90;;;;;;5109272;28;20191;-83
2021/12/30 08:03:32;;;;;;;1.25;0.70;;;12.70;99.90;;;;;;5103272;28;20290;-88
2021/12/30 08:06:01;;;;;;;1.02;0.60;;;12.70;99.90;;;;;;5099703;28;20214;-87
2021/12/30 08:08:29;;;;;;;0.98;0.60;;;12.70;99.90;;;;;;5104864;28;20603;-85
2021/12/30 08:10:56;;;;;;;0.90;0.60;;;12.70;99.90;;;;;;5103447;28;20270;-81
2021/12/30 08:13:24;;;;;;;0.80;0.63;;;12.80;99.90;;;;;;5106621;28;20229;-79
2021/12/30 08:15:52;;;;;;;1.23;0.60;;;12.80;99.90;;;;;;5105911;28;20229;-79
2021/12/30 08:18:19;;;;;;;0.93;0.57;;;12.80;99.90;;;;;;5098992;28;20191;-79
2021/12/30 08:20:47;;;;;;;0.77;0.60;;;12.80;99.90;;;;;;5100614;28;20558;-78
2021/12/30 08:23:14;;;;;;;0.63;0.60;;;12.90;99.90;;;;;;5105423;28;20278;-78
2021/12/30 08:25:43;;;;;;;1.38;0.65;;;12.90;99.90;;;;;;5103407;28;20280;-78
2021/12/30 08:28:12;;;;;;;0.60;0.50;;;12.90;99.90;;;;;;5105444;28;20252;-87
2021/12/30 08:30:39;;;;;;;0.90;0.70;;;12.90;99.90;;;;;;5103346;27;20199;-79
2021/12/30 08:33:06;;;;;;;0.80;0.52;;;12.90;99.90;;;;;;5097421;28;20309;-79
2021/12/30 08:35:33;;;;;;;2.13;0.70;;;12.90;99.90;;;;;;5104542;28;20222;-82
2021/12/30 08:38:01;;;;;;;1.77;0.80;;;13.00;99.90;;;;;;5099684;28;20195;-84
2021/12/30 08:40:30;;;;;;;1.17;0.80;;;13.00;99.90;;;;;;5100646;28;20665;-81
2021/12/30 08:42:57;;;;;;;1.25;0.60;;;13.00;99.90;;;;;;5098682;28;20187;-82
2021/12/30 08:45:24;;;;;;;1.15;0.60;;;13.10;99.90;;;;;;5101448;28;20215;-82
2021/12/30 08:47:51;;;;;;;0.93;0.68;;;13.20;99.90;;;;;;5107332;28;20195;-82
2021/12/30 08:50:18;;;;;;;1.25;0.60;;;13.20;99.90;;;;;;5128160;28;20201;-82
2021/12/30 08:52:47;;;;;;;1.50;0.70;;;13.30;99.90;;;;;;5113820;27;20587;-79
2021/12/30 08:55:17;;;;;;;2.85;0.95;;;13.30;99.90;;;;;;5098770;27;20567;-79
2021/12/30 08:57:45;;;;;;;1.38;0.63;;;13.40;99.90;;;;;;5101323;28;20201;-79
2021/12/30 09:00:16;;;;;;;1.88;0.65;;;13.50;99.90;;;;;;5105229;28;20196;-79
2021/12/30 09:02:44;;;;;;;0.70;0.60;;;13.70;99.90;;;;;;5111977;27;20202;-94
2021/12/30 09:05:12;;;;;;;0.80;0.80;;;13.90;99.90;;;;;;5100365;28;20481;-79
2021/12/30 09:07:39;;;;;;;0.97;0.70;;;14.30;99.90;;;;;;5101870;28;20534;-79
2021/12/30 09:10:08;;;;;;;0.80;0.57;;;14.70;99.90;;;;;;5097741;28;20565;-79
2021/12/30 09:12:37;;;;;;;1.60;0.70;;;15.10;99.90;;;;;;5100858;28;20486;-79
2021/12/30 09:15:06;;;;;;;1.33;0.80;;;15.20;99.90;;;;;;5095084;28;20648;-79
2021/12/30 09:17:33;;;;;;;1.70;0.70;;;15.30;99.90;;;;;;5098026;28;20826;-79
2021/12/30 09:20:00;;;;;;;1.10;0.70;;;15.40;99.90;;;;;;5104791;28;20452;-78
2021/12/30 09:22:27;;;;;;;1.53;0.60;;;15.40;99.90;;;;;;5097014;28;20513;-79
2021/12/30 09:24:54;;;;;;;0.80;0.50;;;15.50;99.90;;;;;;5101725;28;20971;-79
2021/12/30 09:27:21;;;;;;;1.20;0.53;;;15.80;99.90;;;;;;5099252;28;20465;-79
2021/12/30 09:29:49;;;;;;;0.77;0.60;;;16.20;99.90;;;;;;5101654;28;20536;-79
2021/12/30 09:32:16;;;;;;;0.70;0.50;;;16.50;99.90;;;;;;5098644;28;20492;-79
2021/12/30 09:34:45;;;;;;;0.63;0.60;;;16.70;99.90;;;;;;5103143;28;20623;-79
2021/12/30 09:37:11;;;;;;;1.00;0.70;;;16.90;99.90;;;;;;5101751;28;20847;-79
2021/12/30 09:39:40;;;;;;;1.10;0.50;;;17.10;99.90;;;;;;5103463;28;20513;-78
2021/12/30 09:42:07;;;;;;;0.63;0.57;;;17.10;99.90;;;;;;5114999;28;20525;-78
2021/12/30 09:44:36;;;;;;;1.67;0.60;;;17.10;99.90;;;;;;5122297;28;20551;-79
2021/12/30 09:47:05;;;;;;;0.60;0.50;;;16.90;99.90;;;;;;5121620;27;20438;-78
2021/12/30 09:49:32;;;;;;;1.43;0.60;;;16.50;99.90;;;;;;5111883;28;20484;-78
2021/12/30 09:51:59;;;;;;;0.60;0.50;;;16.40;99.90;;;;;;5106121;28;21154;-78
2021/12/30 09:54:26;;;;;;;0.60;0.50;;;16.20;99.90;;;;;;5096709;28;20477;-78
2021/12/30 09:56:53;;;;;;;0.93;0.50;;;16.20;99.90;;;;;;5111310;28;20461;-78
2021/12/30 09:59:23;;;;;;;0.97;0.60;;;16.20;99.90;;;;;;5122121;28;20496;-78
2021/12/30 10:01:51;;;;;;;0.90;0.60;;;16.10;99.90;;;;;;5127909;28;20454;-78
2021/12/30 10:04:30;;;;;;;1.90;0.60;;;16.00;99.90;;;;;;5118909;28;20540;-80
2021/12/30 10:07:00;;;;;;;0.60;0.53;;;16.10;99.90;;;;;;5111827;28;20457;-79
2021/12/30 10:09:39;;;;;;;0.70;0.63;;;16.30;99.90;;;;;;5099993;28;20456;-79
2021/12/30 10:12:07;;;;;;;1.03;0.60;;;16.30;99.90;;;;;;5105192;28;20556;-78
2021/12/30 10:14:36;;;;;;;0.80;0.60;;;16.20;99.90;;;;;;5104488;28;20649;-79
2021/12/30 10:17:17;;;;;;;0.70;0.60;;;16.10;99.90;;;;;;5097739;28;20464;-79
2021/12/30 10:19:47;;;;;;;0.60;0.50;;;16.00;99.90;;;;;;5103690;28;20546;-79
2021/12/30 10:22:17;;;;;;;0.90;0.70;;;15.90;99.90;;;;;;5103152;28;20455;-79
2021/12/30 10:24:45;;;;;;;0.60;0.50;;;15.80;99.90;;;;;;5096645;28;20540;-79
2021/12/30 10:27:24;;;;;;;0.70;0.60;;;15.70;99.90;;;;;;5092088;28;20451;-79
2021/12/30 10:29:51;;;;;;;2.03;0.80;;;15.70;99.90;;;;;;5097260;28;20459;-79
2021/12/30 10:32:22;;;;;;;0.80;0.70;;;15.70;99.90;;;;;;5096017;28;21030;-79
2021/12/30 10:35:11;;;;;;;0.60;0.50;;;15.80;99.90;;;;;;5093155;28;20485;-79
2021/12/30 10:37:42;;;;;;;0.80;0.57;;;15.90;99.90;;;;;;5095664;28;20539;-78
2021/12/30 10:40:26;;;;;;;0.93;0.67;;;15.90;99.90;;;;;;5098518;28;21218;-78
2021/12/30 10:43:17;;;;;;;0.80;0.70;;;16.00;99.90;;;;;;5096061;28;20761;-79
2021/12/30 10:45:44;;;;;;;0.83;0.70;;;16.10;99.90;;;;;;5097745;28;20477;-78
2021/12/30 10:48:11;;;;;;;1.27;0.70;;;16.00;99.90;;;;;;5097159;28;20462;-80
2021/12/30 10:50:40;;;;;;;1.00;0.80;;;16.10;99.90;;;;;;5094879;28;20488;-78
2021/12/30 10:53:06;;;;;;;0.90;0.70;;;16.10;99.90;;;;;;5104386;28;20492;-79
2021/12/30 10:55:34;;;;;;;0.80;0.63;;;16.10;99.90;;;;;;5098923;28;20476;-79
2021/12/30 10:58:24;;;;;;;1.20;0.73;;;16.30;99.90;;;;;;5093842;28;20534;-78
2021/12/30 11:00:51;;;;;;;1.77;0.70;;;16.40;99.90;;;;;;5106526;28;20458;-79
2021/12/30 11:03:24;;;;;;;1.20;1.10;;;16.40;99.90;;;;;;5095863;28;20543;-79
2021/12/30 11:06:11;;;;;;;1.33;1.20;;;16.30;99.90;;;;;;5096385;28;20477;-79
2021/12/30 11:08:38;;;;;;;1.00;0.80;;;16.30;99.90;;;;;;5100280;28;20468;-79
2021/12/30 11:11:23;;;;;;;0.70;0.70;;;16.40;99.90;;;;;;5102469;28;20460;-78
2021/12/30 11:14:02;;;;;;;0.80;0.60;;;16.40;99.90;;;;;;5099354;28;21000;-79
2021/12/30 11:16:30;;;;;;;0.87;0.63;;;16.40;99.90;;;;;;5095931;28;20986;-79
2021/12/30 11:18:57;;;;;;;1.00;0.77;;;16.40;99.90;;;;;;5099227;28;20546;-79
2021/12/30 11:21:39;;;;;;;0.80;0.57;;;16.50;99.90;;;;;;5096405;28;20471;-78
2021/12/30 11:24:08;;;;;;;1.00;0.60;;;16.50;99.90;;;;;;5093241;28;20477;-79
2021/12/30 11:26:36;;;;;;;0.60;0.47;;;16.60;99.90;;;;;;5090104;28;20867;-79
2021/12/30 11:29:04;;;;;;;0.60;0.50;;;16.50;99.90;;;;;;5095861;28;20517;-78
2021/12/30 11:31:32;;;;;;;0.53;0.40;;;16.40;99.90;;;;;;5097106;28;21027;-79
2021/12/30 11:34:00;;;;;;;0.60;0.50;;;16.40;99.90;;;;;;5097756;28;21137;-85
2021/12/30 11:36:29;;;;;;;1.43;0.60;;;16.30;99.90;;;;;;5101540;28;20467;-79
2021/12/30 11:38:58;;;;;;;0.70;0.60;;;16.40;99.90;;;;;;5101595;28;20950;-78
2021/12/30 11:41:28;;;;;;;0.90;0.70;;;16.50;99.90;;;;;;5100371;28;21014;-78
2021/12/30 11:43:56;;;;;;;0.73;0.50;;;16.80;99.90;;;;;;5103064;28;20495;-78
2021/12/30 11:46:44;;;;;;;0.70;0.50;;;17.00;99.90;;;;;;5091934;28;20461;-78
2021/12/30 11:49:14;;;;;;;0.70;0.50;;;17.00;99.90;;;;;;5099127;28;20475;-79
2021/12/30 11:51:43;;;;;;;0.60;0.50;;;17.10;99.90;;;;;;5102857;28;20448;-78
2021/12/30 11:54:34;;;;;;;0.70;0.50;;;17.10;99.90;;;;;;5096404;28;20524;-78
2021/12/30 11:57:31;;;;;;;0.50;0.40;;;17.00;99.90;;;;;;5098803;28;20459;-78
2021/12/30 12:00:00;;;;;;;0.60;0.50;;;16.90;99.90;;;;;;5102656;28;20459;-79
2021/12/30 12:02:33;;;;;;;0.70;0.50;;;16.90;99.90;;;;;;5102938;28;20567;-79
2021/12/30 12:05:15;;;;;;;0.93;0.50;;;16.80;99.90;;;;;;5102313;28;20464;-78
2021/12/30 12:08:02;;;;;;;2.20;0.50;;;16.60;99.90;;;;;;5100191;28;20875;-79
2021/12/30 12:10:33;;;;;;;0.70;0.57;;;16.60;99.90;;;;;;5106486;28;21023;-79
2021/12/30 12:13:34;;;;;;;1.10;0.50;;;16.70;99.90;;;;;;5103468;28;20493;-79
2021/12/30 12:16:03;;;;;;;0.60;0.50;;;16.80;99.90;;;;;;5104575;28;20507;-78
2021/12/30 12:18:31;;;;;;;1.33;0.50;;;16.80;99.90;;;;;;5101970;28;20468;-78
2021/12/30 12:21:00;;;;;;;0.70;0.43;;;16.80;99.90;;;;;;5097466;28;20549;-78
2021/12/30 12:23:31;;;;;;;0.60;0.50;;;16.70;99.90;;;;;;5105349;28;20464;-79
2021/12/30 12:26:11;;;;;;;0.70;0.60;;;16.80;99.90;;;;;;5095513;28;20449;-78
2021/12/30 12:28:38;;;;;;;1.20;0.50;;;16.90;99.90;;;;;;5101188;28;20567;-79
2021/12/30 12:31:07;;;;;;;1.20;0.50;;;17.00;99.90;;;;;;5105411;28;20487;-79
2021/12/30 12:33:36;;;;;;;0.60;0.47;;;16.90;99.90;;;;;;5102222;28;20485;-78
2021/12/30 12:36:10;;;;;;;0.60;0.50;;;17.00;99.90;;;;;;5106704;28;20497;-79
2021/12/30 12:38:40;;;;;;;0.60;0.40;;;16.90;99.90;;;;;;5106934;28;20548;-78
2021/12/30 12:41:23;;;;;;;0.87;0.40;;;16.80;99.90;;;;;;5103074;28;20550;-79
2021/12/30 12:43:53;;;;;;;0.70;0.60;;;16.60;99.90;;;;;;5101414;28;20551;-78
2021/12/30 12:46:38;;;;;;;0.60;0.60;;;16.50;99.90;;;;;;5110427;28;20475;-78
2021/12/30 12:49:07;;;;;;;0.97;0.40;;;16.50;99.90;;;;;;5098146;28;20445;-78
2021/12/30 12:51:36;;;;;;;0.73;0.50;;;16.50;99.90;;;;;;5114013;28;20970;-79
2021/12/30 12:54:06;;;;;;;1.77;0.40;;;16.50;99.90;;;;;;5104041;28;20491;-79
2021/12/30 12:56:37;;;;;;;0.50;0.40;;;16.50;99.90;;;;;;5097709;27;20540;-78
2021/12/30 12:59:11;;;;;;;0.60;0.40;;;16.50;99.90;;;;;;5106396;28;20476;-78